sensor_id;sensor_type;location;lat;lon;timestamp;P1;durP1;ratioP1;P2;durP2;ratioP2
75823;SDS011;64457;51.976;9.834;2023-07-24T00:00:37;6.20;;;1.53;;
75823;SDS011;64457;51.976;9.834;2023-07-24T00:03:07;6.33;;;1.60;;
75823;SDS011;64457;51.976;9.834;2023-07-24T00:05:34;9.37;;;2.23;;
75823;SDS011;64457;51.976;9.834;2023-07-24T00:08:07;6.53;;;1.70;;
75823;SDS011;64457;51.976;9.834;2023-07-24T00:10:35;13.23;;;1.40;;
75823;SDS011;64457;51.976;9.834;2023-07-24T00:13:05;6.43;;;1.50;;
75823;SDS011;64457;51.976;9.834;2023-07-24T00:15:38;5.30;;;1.40;;
75823;SDS011;64457;51.976;9.834;2023-07-24T00:18:07;5.40;;;1.40;;
75823;SDS011;64457;51.976;9.834;2023-07-24T00:20:34;5.87;;;1.43;;
75823;SDS011;64457;51.976;9.834;2023-07-24T00:23:02;5.40;;;1.47;;
75823;SDS011;64457;51.976;9.834;2023-07-24T00:25:29;5.20;;;1.30;;
75823;SDS011;64457;51.976;9.834;2023-07-24T00:27:57;8.13;;;1.50;;
75823;SDS011;64457;51.976;9.834;2023-07-24T00:30:24;6.17;;;1.50;;
75823;SDS011;64457;51.976;9.834;2023-07-24T00:32:52;5.90;;;1.60;;
75823;SDS011;64457;51.976;9.834;2023-07-24T00:35:21;6.33;;;1.53;;
75823;SDS011;64457;51.976;9.834;2023-07-24T00:37:48;5.60;;;1.40;;
75823;SDS011;64457;51.976;9.834;2023-07-24T00:40:15;6.20;;;1.47;;
75823;SDS011;64457;51.976;9.834;2023-07-24T00:42:45;5.80;;;1.50;;
75823;SDS011;64457;51.976;9.834;2023-07-24T00:45:14;5.53;;;1.30;;
75823;SDS011;64457;51.976;9.834;2023-07-24T00:47:42;5.80;;;1.40;;
75823;SDS011;64457;51.976;9.834;2023-07-24T00:50:09;6.37;;;1.53;;
75823;SDS011;64457;51.976;9.834;2023-07-24T00:52:40;5.20;;;1.30;;
75823;SDS011;64457;51.976;9.834;2023-07-24T00:55:09;5.30;;;1.23;;
75823;SDS011;64457;51.976;9.834;2023-07-24T00:57:41;5.33;;;1.27;;
75823;SDS011;64457;51.976;9.834;2023-07-24T01:00:10;7.60;;;1.80;;
75823;SDS011;64457;51.976;9.834;2023-07-24T01:02:39;6.07;;;1.40;;
75823;SDS011;64457;51.976;9.834;2023-07-24T01:05:06;6.07;;;1.50;;
75823;SDS011;64457;51.976;9.834;2023-07-24T01:07:35;5.60;;;1.50;;
75823;SDS011;64457;51.976;9.834;2023-07-24T01:10:04;5.47;;;1.43;;
75823;SDS011;64457;51.976;9.834;2023-07-24T01:12:34;5.40;;;1.50;;
75823;SDS011;64457;51.976;9.834;2023-07-24T01:15:07;5.90;;;1.37;;
75823;SDS011;64457;51.976;9.834;2023-07-24T01:17:42;6.10;;;1.50;;
75823;SDS011;64457;51.976;9.834;2023-07-24T01:20:15;7.60;;;1.50;;
75823;SDS011;64457;51.976;9.834;2023-07-24T01:22:47;6.30;;;1.80;;
75823;SDS011;64457;51.976;9.834;2023-07-24T01:25:32;7.03;;;1.50;;
75823;SDS011;64457;51.976;9.834;2023-07-24T01:28:07;6.87;;;1.73;;
75823;SDS011;64457;51.976;9.834;2023-07-24T01:30:35;5.57;;;1.30;;
75823;SDS011;64457;51.976;9.834;2023-07-24T01:33:02;6.47;;;1.47;;
75823;SDS011;64457;51.976;9.834;2023-07-24T01:35:29;7.13;;;1.67;;
75823;SDS011;64457;51.976;9.834;2023-07-24T01:37:58;6.17;;;1.40;;
75823;SDS011;64457;51.976;9.834;2023-07-24T01:40:26;5.53;;;1.50;;
75823;SDS011;64457;51.976;9.834;2023-07-24T01:42:54;5.10;;;1.27;;
75823;SDS011;64457;51.976;9.834;2023-07-24T01:45:26;5.50;;;1.40;;
75823;SDS011;64457;51.976;9.834;2023-07-24T01:47:53;8.80;;;1.90;;
75823;SDS011;64457;51.976;9.834;2023-07-24T01:50:20;6.50;;;1.40;;
75823;SDS011;64457;51.976;9.834;2023-07-24T01:52:48;5.30;;;1.47;;
75823;SDS011;64457;51.976;9.834;2023-07-24T01:55:15;5.90;;;1.50;;
75823;SDS011;64457;51.976;9.834;2023-07-24T01:57:43;5.60;;;1.50;;
75823;SDS011;64457;51.976;9.834;2023-07-24T02:00:10;4.90;;;1.20;;
75823;SDS011;64457;51.976;9.834;2023-07-24T02:02:40;6.20;;;1.37;;
75823;SDS011;64457;51.976;9.834;2023-07-24T02:05:08;5.70;;;1.20;;
75823;SDS011;64457;51.976;9.834;2023-07-24T02:07:36;6.43;;;1.40;;
75823;SDS011;64457;51.976;9.834;2023-07-24T02:10:03;5.67;;;1.40;;
75823;SDS011;64457;51.976;9.834;2023-07-24T02:12:32;7.20;;;1.30;;
75823;SDS011;64457;51.976;9.834;2023-07-24T02:14:59;8.07;;;1.23;;
75823;SDS011;64457;51.976;9.834;2023-07-24T02:17:26;5.70;;;1.50;;
75823;SDS011;64457;51.976;9.834;2023-07-24T02:19:55;5.63;;;1.30;;
75823;SDS011;64457;51.976;9.834;2023-07-24T02:22:23;5.33;;;1.30;;
75823;SDS011;64457;51.976;9.834;2023-07-24T02:24:50;5.30;;;1.30;;
75823;SDS011;64457;51.976;9.834;2023-07-24T02:27:24;5.40;;;1.37;;
75823;SDS011;64457;51.976;9.834;2023-07-24T02:29:53;6.27;;;1.60;;
75823;SDS011;64457;51.976;9.834;2023-07-24T02:32:20;7.77;;;1.70;;
75823;SDS011;64457;51.976;9.834;2023-07-24T02:34:48;7.70;;;1.47;;
75823;SDS011;64457;51.976;9.834;2023-07-24T02:37:17;5.90;;;1.20;;
75823;SDS011;64457;51.976;9.834;2023-07-24T02:39:45;7.00;;;1.90;;
75823;SDS011;64457;51.976;9.834;2023-07-24T02:42:12;6.53;;;1.37;;
75823;SDS011;64457;51.976;9.834;2023-07-24T02:44:40;5.83;;;1.67;;
75823;SDS011;64457;51.976;9.834;2023-07-24T02:47:07;6.10;;;1.67;;
75823;SDS011;64457;51.976;9.834;2023-07-24T02:49:35;5.97;;;1.43;;
75823;SDS011;64457;51.976;9.834;2023-07-24T02:52:03;6.57;;;1.70;;
75823;SDS011;64457;51.976;9.834;2023-07-24T02:54:33;5.63;;;1.37;;
75823;SDS011;64457;51.976;9.834;2023-07-24T02:57:00;7.03;;;1.30;;
75823;SDS011;64457;51.976;9.834;2023-07-24T02:59:29;5.40;;;1.50;;
75823;SDS011;64457;51.976;9.834;2023-07-24T03:01:57;7.13;;;1.67;;
75823;SDS011;64457;51.976;9.834;2023-07-24T03:04:25;6.37;;;1.60;;
75823;SDS011;64457;51.976;9.834;2023-07-24T03:06:52;5.80;;;1.50;;
75823;SDS011;64457;51.976;9.834;2023-07-24T03:09:20;6.27;;;1.63;;
75823;SDS011;64457;51.976;9.834;2023-07-24T03:11:48;6.93;;;1.60;;
75823;SDS011;64457;51.976;9.834;2023-07-24T03:14:16;5.60;;;1.40;;
75823;SDS011;64457;51.976;9.834;2023-07-24T03:16:43;5.70;;;1.33;;
75823;SDS011;64457;51.976;9.834;2023-07-24T03:19:11;6.00;;;1.67;;
75823;SDS011;64457;51.976;9.834;2023-07-24T03:21:38;5.60;;;1.40;;
75823;SDS011;64457;51.976;9.834;2023-07-24T03:24:07;6.40;;;1.40;;
75823;SDS011;64457;51.976;9.834;2023-07-24T03:26:35;8.83;;;1.80;;
75823;SDS011;64457;51.976;9.834;2023-07-24T03:29:04;9.60;;;1.93;;
75823;SDS011;64457;51.976;9.834;2023-07-24T03:31:32;6.00;;;1.70;;
75823;SDS011;64457;51.976;9.834;2023-07-24T03:34:03;7.53;;;1.90;;
75823;SDS011;64457;51.976;9.834;2023-07-24T03:36:30;10.40;;;1.53;;
75823;SDS011;64457;51.976;9.834;2023-07-24T03:38:58;10.30;;;1.73;;
75823;SDS011;64457;51.976;9.834;2023-07-24T03:41:26;5.77;;;1.77;;
75823;SDS011;64457;51.976;9.834;2023-07-24T03:43:53;5.93;;;1.50;;
75823;SDS011;64457;51.976;9.834;2023-07-24T03:46:23;8.50;;;1.50;;
75823;SDS011;64457;51.976;9.834;2023-07-24T03:48:51;7.57;;;1.80;;
75823;SDS011;64457;51.976;9.834;2023-07-24T03:51:19;5.90;;;1.60;;
75823;SDS011;64457;51.976;9.834;2023-07-24T03:53:46;6.00;;;1.57;;
75823;SDS011;64457;51.976;9.834;2023-07-24T03:56:14;6.10;;;1.80;;
75823;SDS011;64457;51.976;9.834;2023-07-24T03:58:42;6.60;;;1.67;;
75823;SDS011;64457;51.976;9.834;2023-07-24T04:01:09;9.60;;;1.83;;
75823;SDS011;64457;51.976;9.834;2023-07-24T04:03:39;9.97;;;1.90;;
75823;SDS011;64457;51.976;9.834;2023-07-24T04:06:06;8.00;;;1.80;;
75823;SDS011;64457;51.976;9.834;2023-07-24T04:08:35;6.93;;;2.03;;
75823;SDS011;64457;51.976;9.834;2023-07-24T04:11:03;5.50;;;1.37;;
75823;SDS011;64457;51.976;9.834;2023-07-24T04:13:31;6.80;;;2.00;;
75823;SDS011;64457;51.976;9.834;2023-07-24T04:15:58;9.73;;;1.70;;
75823;SDS011;64457;51.976;9.834;2023-07-24T04:18:29;6.00;;;1.50;;
75823;SDS011;64457;51.976;9.834;2023-07-24T04:20:59;10.00;;;2.00;;
75823;SDS011;64457;51.976;9.834;2023-07-24T04:23:26;6.00;;;1.80;;
75823;SDS011;64457;51.976;9.834;2023-07-24T04:25:57;6.37;;;1.70;;
75823;SDS011;64457;51.976;9.834;2023-07-24T04:28:25;9.87;;;1.60;;
75823;SDS011;64457;51.976;9.834;2023-07-24T04:30:52;9.43;;;1.90;;
75823;SDS011;64457;51.976;9.834;2023-07-24T04:33:19;6.00;;;1.67;;
75823;SDS011;64457;51.976;9.834;2023-07-24T04:35:47;7.00;;;1.77;;
75823;SDS011;64457;51.976;9.834;2023-07-24T04:38:16;8.30;;;2.37;;
75823;SDS011;64457;51.976;9.834;2023-07-24T04:40:44;8.03;;;2.33;;
75823;SDS011;64457;51.976;9.834;2023-07-24T04:43:11;10.00;;;2.13;;
75823;SDS011;64457;51.976;9.834;2023-07-24T04:45:38;5.97;;;1.87;;
75823;SDS011;64457;51.976;9.834;2023-07-24T04:48:06;6.03;;;1.90;;
75823;SDS011;64457;51.976;9.834;2023-07-24T04:50:33;6.97;;;2.07;;
75823;SDS011;64457;51.976;9.834;2023-07-24T04:53:01;6.00;;;1.80;;
75823;SDS011;64457;51.976;9.834;2023-07-24T04:55:30;10.63;;;2.07;;
75823;SDS011;64457;51.976;9.834;2023-07-24T04:57:57;6.60;;;1.80;;
75823;SDS011;64457;51.976;9.834;2023-07-24T05:00:25;7.60;;;2.00;;
75823;SDS011;64457;51.976;9.834;2023-07-24T05:02:52;6.83;;;1.53;;
75823;SDS011;64457;51.976;9.834;2023-07-24T05:05:20;7.10;;;2.23;;
75823;SDS011;64457;51.976;9.834;2023-07-24T05:07:47;6.57;;;1.87;;
75823;SDS011;64457;51.976;9.834;2023-07-24T05:10:15;7.73;;;2.30;;
75823;SDS011;64457;51.976;9.834;2023-07-24T05:12:44;6.60;;;2.00;;
75823;SDS011;64457;51.976;9.834;2023-07-24T05:15:13;9.07;;;2.07;;
75823;SDS011;64457;51.976;9.834;2023-07-24T05:17:45;17.53;;;1.80;;
75823;SDS011;64457;51.976;9.834;2023-07-24T05:20:12;7.10;;;1.77;;
75823;SDS011;64457;51.976;9.834;2023-07-24T05:22:40;6.70;;;2.03;;
75823;SDS011;64457;51.976;9.834;2023-07-24T05:25:08;6.10;;;1.80;;
75823;SDS011;64457;51.976;9.834;2023-07-24T05:27:35;6.43;;;2.13;;
75823;SDS011;64457;51.976;9.834;2023-07-24T05:30:05;11.93;;;2.40;;
75823;SDS011;64457;51.976;9.834;2023-07-24T05:32:38;7.73;;;2.43;;
75823;SDS011;64457;51.976;9.834;2023-07-24T05:35:05;6.03;;;1.67;;
75823;SDS011;64457;51.976;9.834;2023-07-24T05:37:34;7.83;;;2.30;;
75823;SDS011;64457;51.976;9.834;2023-07-24T05:40:01;8.63;;;2.20;;
75823;SDS011;64457;51.976;9.834;2023-07-24T05:42:29;7.00;;;2.27;;
75823;SDS011;64457;51.976;9.834;2023-07-24T05:44:58;9.17;;;2.00;;
75823;SDS011;64457;51.976;9.834;2023-07-24T05:47:27;6.27;;;1.97;;
75823;SDS011;64457;51.976;9.834;2023-07-24T05:49:55;7.00;;;2.07;;
75823;SDS011;64457;51.976;9.834;2023-07-24T05:52:22;7.50;;;2.13;;
75823;SDS011;64457;51.976;9.834;2023-07-24T05:55:03;6.70;;;2.33;;
75823;SDS011;64457;51.976;9.834;2023-07-24T05:57:32;8.13;;;2.17;;
75823;SDS011;64457;51.976;9.834;2023-07-24T05:59:59;6.07;;;2.17;;
75823;SDS011;64457;51.976;9.834;2023-07-24T06:02:30;6.77;;;2.10;;
75823;SDS011;64457;51.976;9.834;2023-07-24T06:04:58;6.50;;;2.10;;
75823;SDS011;64457;51.976;9.834;2023-07-24T06:07:25;8.10;;;2.17;;
75823;SDS011;64457;51.976;9.834;2023-07-24T06:09:53;5.80;;;1.87;;
75823;SDS011;64457;51.976;9.834;2023-07-24T06:12:20;5.73;;;1.73;;
75823;SDS011;64457;51.976;9.834;2023-07-24T06:14:47;6.20;;;1.93;;
75823;SDS011;64457;51.976;9.834;2023-07-24T06:17:15;5.80;;;1.60;;
75823;SDS011;64457;51.976;9.834;2023-07-24T06:19:44;7.93;;;2.20;;
75823;SDS011;64457;51.976;9.834;2023-07-24T06:22:12;6.20;;;1.60;;
75823;SDS011;64457;51.976;9.834;2023-07-24T06:24:39;6.40;;;1.97;;
75823;SDS011;64457;51.976;9.834;2023-07-24T06:27:07;6.80;;;2.07;;
75823;SDS011;64457;51.976;9.834;2023-07-24T06:29:34;6.00;;;2.10;;
75823;SDS011;64457;51.976;9.834;2023-07-24T06:32:02;6.43;;;2.00;;
75823;SDS011;64457;51.976;9.834;2023-07-24T06:34:30;7.00;;;2.07;;
75823;SDS011;64457;51.976;9.834;2023-07-24T06:36:59;7.37;;;1.90;;
75823;SDS011;64457;51.976;9.834;2023-07-24T06:39:26;10.70;;;2.30;;
75823;SDS011;64457;51.976;9.834;2023-07-24T06:41:54;7.30;;;2.00;;
75823;SDS011;64457;51.976;9.834;2023-07-24T06:44:22;6.20;;;2.03;;
75823;SDS011;64457;51.976;9.834;2023-07-24T06:46:49;6.17;;;2.20;;
75823;SDS011;64457;51.976;9.834;2023-07-24T06:49:17;6.70;;;1.73;;
75823;SDS011;64457;51.976;9.834;2023-07-24T06:51:44;6.80;;;1.90;;
75823;SDS011;64457;51.976;9.834;2023-07-24T06:54:13;6.17;;;2.13;;
75823;SDS011;64457;51.976;9.834;2023-07-24T06:56:41;8.10;;;2.47;;
75823;SDS011;64457;51.976;9.834;2023-07-24T06:59:08;7.70;;;2.20;;
75823;SDS011;64457;51.976;9.834;2023-07-24T07:01:36;6.17;;;2.07;;
75823;SDS011;64457;51.976;9.834;2023-07-24T07:04:04;5.60;;;1.90;;
75823;SDS011;64457;51.976;9.834;2023-07-24T07:06:34;7.23;;;2.17;;
75823;SDS011;64457;51.976;9.834;2023-07-24T07:09:02;6.60;;;2.30;;
75823;SDS011;64457;51.976;9.834;2023-07-24T07:11:31;6.83;;;2.20;;
75823;SDS011;64457;51.976;9.834;2023-07-24T07:13:58;6.10;;;2.20;;
75823;SDS011;64457;51.976;9.834;2023-07-24T07:16:26;5.77;;;1.80;;
75823;SDS011;64457;51.976;9.834;2023-07-24T07:18:53;8.00;;;2.27;;
75823;SDS011;64457;51.976;9.834;2023-07-24T07:21:21;10.20;;;2.00;;
75823;SDS011;64457;51.976;9.834;2023-07-24T07:23:48;7.47;;;2.30;;
75823;SDS011;64457;51.976;9.834;2023-07-24T07:26:16;6.10;;;2.10;;
75823;SDS011;64457;51.976;9.834;2023-07-24T07:28:44;7.23;;;2.57;;
75823;SDS011;64457;51.976;9.834;2023-07-24T07:31:12;6.40;;;2.20;;
75823;SDS011;64457;51.976;9.834;2023-07-24T07:33:39;7.13;;;2.17;;
75823;SDS011;64457;51.976;9.834;2023-07-24T07:36:07;7.03;;;1.97;;
75823;SDS011;64457;51.976;9.834;2023-07-24T07:42:09;4.63;;;2.00;;
75823;SDS011;64457;51.976;9.834;2023-07-24T07:44:39;5.90;;;1.70;;
75823;SDS011;64457;51.976;9.834;2023-07-24T07:47:15;4.77;;;1.70;;
75823;SDS011;64457;51.976;9.834;2023-07-24T07:49:43;4.80;;;1.90;;
75823;SDS011;64457;51.976;9.834;2023-07-24T07:52:18;6.07;;;1.80;;
75823;SDS011;64457;51.976;9.834;2023-07-24T07:54:54;6.33;;;2.50;;
75823;SDS011;64457;51.976;9.834;2023-07-24T07:58:08;5.27;;;2.07;;
75823;SDS011;64457;51.976;9.834;2023-07-24T08:00:44;5.07;;;2.40;;
75823;SDS011;64457;51.976;9.834;2023-07-24T08:06:38;5.50;;;2.00;;
75823;SDS011;64457;51.976;9.834;2023-07-24T08:09:05;5.80;;;2.40;;
75823;SDS011;64457;51.976;9.834;2023-07-24T08:11:32;6.53;;;2.97;;
75823;SDS011;64457;51.976;9.834;2023-07-24T08:14:00;9.20;;;2.47;;
75823;SDS011;64457;51.976;9.834;2023-07-24T08:16:29;7.50;;;2.70;;
75823;SDS011;64457;51.976;9.834;2023-07-24T08:18:56;7.50;;;2.80;;
75823;SDS011;64457;51.976;9.834;2023-07-24T08:21:24;8.13;;;2.80;;
75823;SDS011;64457;51.976;9.834;2023-07-24T08:23:51;6.90;;;2.80;;
75823;SDS011;64457;51.976;9.834;2023-07-24T08:26:19;9.00;;;2.80;;
75823;SDS011;64457;51.976;9.834;2023-07-24T08:28:46;8.20;;;2.67;;
75823;SDS011;64457;51.976;9.834;2023-07-24T08:31:13;7.37;;;2.80;;
75823;SDS011;64457;51.976;9.834;2023-07-24T08:33:42;8.80;;;2.93;;
75823;SDS011;64457;51.976;9.834;2023-07-24T08:36:10;7.10;;;2.67;;
75823;SDS011;64457;51.976;9.834;2023-07-24T08:38:38;7.20;;;2.77;;
75823;SDS011;64457;51.976;9.834;2023-07-24T08:41:08;6.03;;;2.00;;
75823;SDS011;64457;51.976;9.834;2023-07-24T08:43:38;6.47;;;2.30;;
75823;SDS011;64457;51.976;9.834;2023-07-24T08:46:06;6.07;;;2.00;;
75823;SDS011;64457;51.976;9.834;2023-07-24T08:48:35;5.63;;;1.87;;
75823;SDS011;64457;51.976;9.834;2023-07-24T08:51:06;7.13;;;2.13;;
75823;SDS011;64457;51.976;9.834;2023-07-24T08:53:35;7.13;;;2.30;;
75823;SDS011;64457;51.976;9.834;2023-07-24T08:56:05;6.33;;;2.10;;
75823;SDS011;64457;51.976;9.834;2023-07-24T08:58:35;5.67;;;1.87;;
75823;SDS011;64457;51.976;9.834;2023-07-24T09:01:04;5.27;;;1.73;;
75823;SDS011;64457;51.976;9.834;2023-07-24T09:03:32;6.80;;;1.57;;
75823;SDS011;64457;51.976;9.834;2023-07-24T09:06:00;5.63;;;1.60;;
75823;SDS011;64457;51.976;9.834;2023-07-24T09:08:30;4.60;;;1.60;;
75823;SDS011;64457;51.976;9.834;2023-07-24T09:10:59;6.60;;;1.50;;
75823;SDS011;64457;51.976;9.834;2023-07-24T09:13:27;4.10;;;1.23;;
75823;SDS011;64457;51.976;9.834;2023-07-24T09:15:55;4.80;;;1.40;;
75823;SDS011;64457;51.976;9.834;2023-07-24T09:18:24;4.57;;;1.60;;
75823;SDS011;64457;51.976;9.834;2023-07-24T09:20:52;5.07;;;1.77;;
75823;SDS011;64457;51.976;9.834;2023-07-24T09:23:25;5.00;;;1.43;;
75823;SDS011;64457;51.976;9.834;2023-07-24T09:25:55;5.27;;;1.80;;
75823;SDS011;64457;51.976;9.834;2023-07-24T09:28:23;6.83;;;1.60;;
75823;SDS011;64457;51.976;9.834;2023-07-24T09:30:51;4.67;;;1.93;;
75823;SDS011;64457;51.976;9.834;2023-07-24T09:33:20;16.23;;;1.63;;
75823;SDS011;64457;51.976;9.834;2023-07-24T09:35:58;7.27;;;2.00;;
75823;SDS011;64457;51.976;9.834;2023-07-24T09:38:27;4.93;;;1.60;;
75823;SDS011;64457;51.976;9.834;2023-07-24T09:40:56;4.57;;;1.47;;
75823;SDS011;64457;51.976;9.834;2023-07-24T09:43:24;4.67;;;1.40;;
75823;SDS011;64457;51.976;9.834;2023-07-24T09:45:54;6.97;;;1.77;;
75823;SDS011;64457;51.976;9.834;2023-07-24T09:48:22;5.57;;;1.80;;
75823;SDS011;64457;51.976;9.834;2023-07-24T09:50:52;6.00;;;1.80;;
75823;SDS011;64457;51.976;9.834;2023-07-24T09:53:22;5.00;;;1.60;;
75823;SDS011;64457;51.976;9.834;2023-07-24T09:56:00;4.07;;;1.57;;
75823;SDS011;64457;51.976;9.834;2023-07-24T09:58:31;4.40;;;1.40;;
75823;SDS011;64457;51.976;9.834;2023-07-24T10:01:01;4.20;;;1.50;;
75823;SDS011;64457;51.976;9.834;2023-07-24T10:03:31;9.80;;;1.87;;
75823;SDS011;64457;51.976;9.834;2023-07-24T10:06:01;5.47;;;1.87;;
75823;SDS011;64457;51.976;9.834;2023-07-24T10:08:29;4.80;;;1.70;;
75823;SDS011;64457;51.976;9.834;2023-07-24T10:10:58;5.67;;;2.43;;
75823;SDS011;64457;51.976;9.834;2023-07-24T10:13:27;5.00;;;2.10;;
75823;SDS011;64457;51.976;9.834;2023-07-24T10:15:55;6.20;;;2.20;;
75823;SDS011;64457;51.976;9.834;2023-07-24T10:18:26;6.27;;;2.40;;
75823;SDS011;64457;51.976;9.834;2023-07-24T10:21:00;5.20;;;2.03;;
75823;SDS011;64457;51.976;9.834;2023-07-24T10:23:29;5.70;;;2.20;;
75823;SDS011;64457;51.976;9.834;2023-07-24T10:26:01;6.63;;;2.07;;
75823;SDS011;64457;51.976;9.834;2023-07-24T10:28:32;6.50;;;2.33;;
75823;SDS011;64457;51.976;9.834;2023-07-24T10:31:04;5.30;;;2.10;;
75823;SDS011;64457;51.976;9.834;2023-07-24T10:33:34;5.17;;;2.00;;
75823;SDS011;64457;51.976;9.834;2023-07-24T10:36:04;5.40;;;2.27;;
75823;SDS011;64457;51.976;9.834;2023-07-24T10:38:35;5.90;;;2.20;;
75823;SDS011;64457;51.976;9.834;2023-07-24T10:41:05;6.80;;;2.60;;
75823;SDS011;64457;51.976;9.834;2023-07-24T10:43:42;6.30;;;2.40;;
75823;SDS011;64457;51.976;9.834;2023-07-24T10:46:12;8.03;;;2.33;;
75823;SDS011;64457;51.976;9.834;2023-07-24T10:48:41;12.00;;;3.13;;
75823;SDS011;64457;51.976;9.834;2023-07-24T10:51:10;6.30;;;2.50;;
75823;SDS011;64457;51.976;9.834;2023-07-24T10:53:41;6.53;;;2.63;;
75823;SDS011;64457;51.976;9.834;2023-07-24T10:56:12;6.43;;;2.33;;
75823;SDS011;64457;51.976;9.834;2023-07-24T10:58:41;7.23;;;2.70;;
75823;SDS011;64457;51.976;9.834;2023-07-24T11:01:09;5.87;;;2.30;;
75823;SDS011;64457;51.976;9.834;2023-07-24T11:03:38;6.73;;;2.73;;
75823;SDS011;64457;51.976;9.834;2023-07-24T11:06:11;6.67;;;2.77;;
75823;SDS011;64457;51.976;9.834;2023-07-24T11:08:41;6.00;;;2.17;;
75823;SDS011;64457;51.976;9.834;2023-07-24T11:11:09;6.27;;;2.50;;
75823;SDS011;64457;51.976;9.834;2023-07-24T11:13:37;6.60;;;2.80;;
75823;SDS011;64457;51.976;9.834;2023-07-24T11:16:07;6.43;;;2.67;;
75823;SDS011;64457;51.976;9.834;2023-07-24T11:18:43;8.00;;;2.87;;
75823;SDS011;64457;51.976;9.834;2023-07-24T11:21:12;6.23;;;2.77;;
75823;SDS011;64457;51.976;9.834;2023-07-24T11:23:44;5.77;;;2.43;;
75823;SDS011;64457;51.976;9.834;2023-07-24T11:26:14;5.20;;;2.30;;
75823;SDS011;64457;51.976;9.834;2023-07-24T11:28:42;5.40;;;2.50;;
75823;SDS011;64457;51.976;9.834;2023-07-24T11:31:11;9.83;;;2.87;;
75823;SDS011;64457;51.976;9.834;2023-07-24T11:33:40;6.40;;;2.77;;
75823;SDS011;64457;51.976;9.834;2023-07-24T11:36:08;6.50;;;2.70;;
75823;SDS011;64457;51.976;9.834;2023-07-24T11:38:37;11.43;;;2.50;;
75823;SDS011;64457;51.976;9.834;2023-07-24T11:41:27;7.33;;;3.10;;
75823;SDS011;64457;51.976;9.834;2023-07-24T11:43:54;6.40;;;2.83;;
75823;SDS011;64457;51.976;9.834;2023-07-24T11:46:24;7.13;;;2.90;;
75823;SDS011;64457;51.976;9.834;2023-07-24T11:48:53;6.33;;;3.17;;
75823;SDS011;64457;51.976;9.834;2023-07-24T11:51:21;5.40;;;2.50;;
75823;SDS011;64457;51.976;9.834;2023-07-24T11:53:52;6.07;;;2.70;;
75823;SDS011;64457;51.976;9.834;2023-07-24T11:56:32;6.23;;;2.63;;
75823;SDS011;64457;51.976;9.834;2023-07-24T11:59:08;5.90;;;2.40;;
75823;SDS011;64457;51.976;9.834;2023-07-24T12:01:47;4.90;;;2.30;;
75823;SDS011;64457;51.976;9.834;2023-07-24T12:04:16;7.40;;;2.83;;
75823;SDS011;64457;51.976;9.834;2023-07-24T12:06:44;10.10;;;2.67;;
75823;SDS011;64457;51.976;9.834;2023-07-24T12:09:12;7.47;;;2.80;;
75823;SDS011;64457;51.976;9.834;2023-07-24T12:11:39;5.70;;;2.70;;
75823;SDS011;64457;51.976;9.834;2023-07-24T12:14:08;5.40;;;2.57;;
75823;SDS011;64457;51.976;9.834;2023-07-24T12:16:36;6.17;;;2.60;;
75823;SDS011;64457;51.976;9.834;2023-07-24T12:19:06;6.77;;;2.80;;
75823;SDS011;64457;51.976;9.834;2023-07-24T12:21:36;5.43;;;2.30;;
75823;SDS011;64457;51.976;9.834;2023-07-24T12:24:08;6.17;;;2.70;;
75823;SDS011;64457;51.976;9.834;2023-07-24T12:26:52;4.93;;;2.30;;
75823;SDS011;64457;51.976;9.834;2023-07-24T12:29:35;6.37;;;2.10;;
75823;SDS011;64457;51.976;9.834;2023-07-24T12:32:09;6.60;;;2.67;;
75823;SDS011;64457;51.976;9.834;2023-07-24T12:34:38;5.67;;;2.53;;
75823;SDS011;64457;51.976;9.834;2023-07-24T12:37:05;5.90;;;2.37;;
75823;SDS011;64457;51.976;9.834;2023-07-24T12:39:33;7.53;;;2.97;;
75823;SDS011;64457;51.976;9.834;2023-07-24T12:42:00;6.30;;;2.10;;
75823;SDS011;64457;51.976;9.834;2023-07-24T12:44:28;6.23;;;2.70;;
75823;SDS011;64457;51.976;9.834;2023-07-24T12:46:55;5.37;;;2.40;;
75823;SDS011;64457;51.976;9.834;2023-07-24T12:49:26;7.53;;;2.93;;
75823;SDS011;64457;51.976;9.834;2023-07-24T12:51:54;5.10;;;2.40;;
75823;SDS011;64457;51.976;9.834;2023-07-24T12:54:22;7.10;;;2.50;;
75823;SDS011;64457;51.976;9.834;2023-07-24T12:56:53;6.03;;;2.80;;
75823;SDS011;64457;51.976;9.834;2023-07-24T12:59:20;6.23;;;2.30;;
75823;SDS011;64457;51.976;9.834;2023-07-24T13:01:48;6.30;;;2.30;;
75823;SDS011;64457;51.976;9.834;2023-07-24T13:04:16;6.20;;;2.40;;
75823;SDS011;64457;51.976;9.834;2023-07-24T13:06:45;5.97;;;2.87;;
75823;SDS011;64457;51.976;9.834;2023-07-24T13:09:13;7.17;;;2.53;;
75823;SDS011;64457;51.976;9.834;2023-07-24T13:11:40;6.53;;;2.67;;
75823;SDS011;64457;51.976;9.834;2023-07-24T13:14:08;5.70;;;2.50;;
75823;SDS011;64457;51.976;9.834;2023-07-24T13:16:38;5.60;;;2.40;;
75823;SDS011;64457;51.976;9.834;2023-07-24T13:19:06;6.40;;;2.77;;
75823;SDS011;64457;51.976;9.834;2023-07-24T13:21:33;6.53;;;2.10;;
75823;SDS011;64457;51.976;9.834;2023-07-24T13:24:02;6.00;;;2.37;;
75823;SDS011;64457;51.976;9.834;2023-07-24T13:26:30;6.37;;;2.30;;
75823;SDS011;64457;51.976;9.834;2023-07-24T13:28:58;5.67;;;2.53;;
75823;SDS011;64457;51.976;9.834;2023-07-24T13:31:25;6.60;;;2.17;;
75823;SDS011;64457;51.976;9.834;2023-07-24T13:33:54;6.33;;;2.30;;
75823;SDS011;64457;51.976;9.834;2023-07-24T13:36:21;6.97;;;2.60;;
75823;SDS011;64457;51.976;9.834;2023-07-24T13:38:49;5.43;;;2.30;;
75823;SDS011;64457;51.976;9.834;2023-07-24T13:41:18;5.40;;;2.47;;
75823;SDS011;64457;51.976;9.834;2023-07-24T13:43:46;5.77;;;2.37;;
75823;SDS011;64457;51.976;9.834;2023-07-24T13:46:17;5.43;;;2.37;;
75823;SDS011;64457;51.976;9.834;2023-07-24T13:48:45;5.60;;;2.20;;
75823;SDS011;64457;51.976;9.834;2023-07-24T13:51:14;5.43;;;2.20;;
75823;SDS011;64457;51.976;9.834;2023-07-24T13:53:42;6.33;;;2.63;;
75823;SDS011;64457;51.976;9.834;2023-07-24T13:56:12;6.53;;;2.67;;
75823;SDS011;64457;51.976;9.834;2023-07-24T13:58:41;5.97;;;2.20;;
75823;SDS011;64457;51.976;9.834;2023-07-24T14:01:09;7.30;;;2.60;;
75823;SDS011;64457;51.976;9.834;2023-07-24T14:03:37;5.30;;;2.30;;
75823;SDS011;64457;51.976;9.834;2023-07-24T14:06:04;6.20;;;2.67;;
75823;SDS011;64457;51.976;9.834;2023-07-24T14:08:32;6.60;;;2.50;;
75823;SDS011;64457;51.976;9.834;2023-07-24T14:10:59;5.60;;;2.27;;
75823;SDS011;64457;51.976;9.834;2023-07-24T14:13:28;4.67;;;2.00;;
75823;SDS011;64457;51.976;9.834;2023-07-24T14:15:57;5.40;;;2.27;;
75823;SDS011;64457;51.976;9.834;2023-07-24T14:18:24;5.20;;;1.93;;
75823;SDS011;64457;51.976;9.834;2023-07-24T14:20:52;9.27;;;2.70;;
75823;SDS011;64457;51.976;9.834;2023-07-24T14:23:20;5.77;;;2.50;;
75823;SDS011;64457;51.976;9.834;2023-07-24T14:25:48;5.53;;;2.33;;
75823;SDS011;64457;51.976;9.834;2023-07-24T14:28:17;5.50;;;2.50;;
75823;SDS011;64457;51.976;9.834;2023-07-24T14:30:45;6.60;;;3.10;;
75823;SDS011;64457;51.976;9.834;2023-07-24T14:33:15;8.80;;;3.93;;
75823;SDS011;64457;51.976;9.834;2023-07-24T14:35:43;6.50;;;2.70;;
75823;SDS011;64457;51.976;9.834;2023-07-24T14:38:11;7.73;;;2.37;;
75823;SDS011;64457;51.976;9.834;2023-07-24T14:40:39;4.90;;;1.87;;
75823;SDS011;64457;51.976;9.834;2023-07-24T14:43:07;14.07;;;2.47;;
75823;SDS011;64457;51.976;9.834;2023-07-24T14:45:34;14.03;;;3.40;;
75823;SDS011;64457;51.976;9.834;2023-07-24T14:48:02;9.07;;;2.50;;
75823;SDS011;64457;51.976;9.834;2023-07-24T14:50:32;9.47;;;2.27;;
75823;SDS011;64457;51.976;9.834;2023-07-24T14:52:59;6.33;;;2.40;;
75823;SDS011;64457;51.976;9.834;2023-07-24T14:55:27;6.30;;;2.30;;
75823;SDS011;64457;51.976;9.834;2023-07-24T14:57:54;6.57;;;1.90;;
75823;SDS011;64457;51.976;9.834;2023-07-24T15:00:22;8.33;;;2.43;;
75823;SDS011;64457;51.976;9.834;2023-07-24T15:02:49;7.70;;;2.13;;
75823;SDS011;64457;51.976;9.834;2023-07-24T15:05:16;7.53;;;2.20;;